sensor_id;sensor_type;location;lat;lon;timestamp;temperature;humidity
75613;DHT22;64198;48.556;-2.934;2022-12-04T17:21:48;15.60;66.10
75613;DHT22;64198;48.556;-2.934;2022-12-04T17:24:14;15.60;66.00
75613;DHT22;64198;48.556;-2.934;2022-12-04T17:26:40;15.70;65.80
75613;DHT22;64198;48.556;-2.934;2022-12-04T17:29:06;15.70;65.70
75613;DHT22;64198;48.556;-2.934;2022-12-04T17:31:31;15.70;66.00
75613;DHT22;64198;48.556;-2.934;2022-12-04T17:33:57;15.80;66.00
75613;DHT22;64198;48.556;-2.934;2022-12-04T17:36:24;15.80;65.90
75613;DHT22;64198;48.556;-2.934;2022-12-04T17:38:54;15.80;66.00
75613;DHT22;64198;48.556;-2.934;2022-12-04T17:41:20;15.70;66.00
75613;DHT22;64198;48.556;-2.934;2022-12-04T17:43:46;15.80;65.80
75613;DHT22;64198;48.556;-2.934;2022-12-04T17:46:16;15.80;65.70
75613;DHT22;64198;48.556;-2.934;2022-12-04T17:48:43;15.70;65.60
75613;DHT22;64198;48.556;-2.934;2022-12-04T17:51:11;15.60;65.70
75613;DHT22;64198;48.556;-2.934;2022-12-04T17:53:38;15.60;65.90
75613;DHT22;64198;48.556;-2.934;2022-12-04T17:56:05;15.60;66.00
75613;DHT22;64198;48.556;-2.934;2022-12-04T17:58:32;15.50;66.00
75613;DHT22;64198;48.556;-2.934;2022-12-04T18:01:04;15.50;65.60
75613;DHT22;64198;48.556;-2.934;2022-12-04T18:03:30;15.50;65.40
75613;DHT22;64198;48.556;-2.934;2022-12-04T18:05:56;15.60;65.20
75613;DHT22;64198;48.556;-2.934;2022-12-04T18:08:22;15.60;65.30
75613;DHT22;64198;48.556;-2.934;2022-12-04T18:10:49;15.60;65.30
75613;DHT22;64198;48.556;-2.934;2022-12-04T18:13:15;15.50;65.40
75613;DHT22;64198;48.556;-2.934;2022-12-04T18:15:40;15.50;65.40
75613;DHT22;64198;48.556;-2.934;2022-12-04T18:18:06;15.40;65.50
75613;DHT22;64198;48.556;-2.934;2022-12-04T18:20:32;15.40;65.60
75613;DHT22;64198;48.556;-2.934;2022-12-04T18:22:58;15.50;65.40
75613;DHT22;64198;48.556;-2.934;2022-12-04T18:25:24;15.50;65.30
75613;DHT22;64198;48.556;-2.934;2022-12-04T18:27:49;15.50;65.40
75613;DHT22;64198;48.556;-2.934;2022-12-04T18:30:16;15.40;65.40
75613;DHT22;64198;48.556;-2.934;2022-12-04T18:32:42;15.50;65.30
75613;DHT22;64198;48.556;-2.934;2022-12-04T18:35:09;15.50;65.20
75613;DHT22;64198;48.556;-2.934;2022-12-04T18:37:35;15.50;65.20
75613;DHT22;64198;48.556;-2.934;2022-12-04T18:40:02;15.50;65.20
75613;DHT22;64198;48.556;-2.934;2022-12-04T18:42:30;15.40;65.30
75613;DHT22;64198;48.556;-2.934;2022-12-04T18:44:55;15.40;65.40
75613;DHT22;64198;48.556;-2.934;2022-12-04T18:47:21;15.50;65.40
75613;DHT22;64198;48.556;-2.934;2022-12-04T18:49:47;15.50;65.20
75613;DHT22;64198;48.556;-2.934;2022-12-04T18:52:13;15.50;65.20
75613;DHT22;64198;48.556;-2.934;2022-12-04T18:54:39;15.50;65.20
75613;DHT22;64198;48.556;-2.934;2022-12-04T18:57:05;15.50;65.20
75613;DHT22;64198;48.556;-2.934;2022-12-04T18:59:30;15.50;65.20
75613;DHT22;64198;48.556;-2.934;2022-12-04T19:01:57;15.40;65.20
75613;DHT22;64198;48.556;-2.934;2022-12-04T19:04:24;15.40;65.30
75613;DHT22;64198;48.556;-2.934;2022-12-04T19:06:52;15.40;65.40
75613;DHT22;64198;48.556;-2.934;2022-12-04T19:09:22;15.40;65.30
75613;DHT22;64198;48.556;-2.934;2022-12-04T19:11:48;15.40;65.30
75613;DHT22;64198;48.556;-2.934;2022-12-04T19:14:16;15.40;65.20
75613;DHT22;64198;48.556;-2.934;2022-12-04T19:16:42;15.40;65.30
75613;DHT22;64198;48.556;-2.934;2022-12-04T19:19:10;15.40;65.30
75613;DHT22;64198;48.556;-2.934;2022-12-04T19:21:36;15.40;65.20
75613;DHT22;64198;48.556;-2.934;2022-12-04T19:24:02;15.40;65.30
75613;DHT22;64198;48.556;-2.934;2022-12-04T19:26:30;15.40;65.20
75613;DHT22;64198;48.556;-2.934;2022-12-04T19:28:56;15.40;65.30
75613;DHT22;64198;48.556;-2.934;2022-12-04T19:31:28;15.40;65.30
75613;DHT22;64198;48.556;-2.934;2022-12-04T19:33:54;15.40;65.30
75613;DHT22;64198;48.556;-2.934;2022-12-04T19:36:25;15.30;65.30
75613;DHT22;64198;48.556;-2.934;2022-12-04T19:38:51;15.30;65.30
75613;DHT22;64198;48.556;-2.934;2022-12-04T19:41:20;15.30;65.30
75613;DHT22;64198;48.556;-2.934;2022-12-04T19:43:49;15.30;65.30
75613;DHT22;64198;48.556;-2.934;2022-12-04T19:46:18;15.30;65.20
75613;DHT22;64198;48.556;-2.934;2022-12-04T19:48:45;15.30;65.20
75613;DHT22;64198;48.556;-2.934;2022-12-04T19:51:16;15.30;65.30
75613;DHT22;64198;48.556;-2.934;2022-12-04T19:53:43;15.30;65.30
75613;DHT22;64198;48.556;-2.934;2022-12-04T19:56:11;15.30;65.40
75613;DHT22;64198;48.556;-2.934;2022-12-04T19:58:38;15.30;65.40
75613;DHT22;64198;48.556;-2.934;2022-12-04T20:01:06;15.30;65.40
75613;DHT22;64198;48.556;-2.934;2022-12-04T20:03:33;15.30;65.30
75613;DHT22;64198;48.556;-2.934;2022-12-04T20:06:10;15.30;65.30
75613;DHT22;64198;48.556;-2.934;2022-12-04T20:08:37;15.30;65.30
75613;DHT22;64198;48.556;-2.934;2022-12-04T20:11:05;15.30;65.30
75613;DHT22;64198;48.556;-2.934;2022-12-04T20:13:34;15.20;65.30
75613;DHT22;64198;48.556;-2.934;2022-12-04T20:16:05;15.20;65.30
75613;DHT22;64198;48.556;-2.934;2022-12-04T20:18:31;15.20;65.30
75613;DHT22;64198;48.556;-2.934;2022-12-04T20:20:59;15.20;65.30
75613;DHT22;64198;48.556;-2.934;2022-12-04T20:23:25;15.20;65.30
75613;DHT22;64198;48.556;-2.934;2022-12-04T20:25:51;15.10;65.40
75613;DHT22;64198;48.556;-2.934;2022-12-04T20:28:17;15.10;65.30
75613;DHT22;64198;48.556;-2.934;2022-12-04T20:30:43;15.00;65.10
75613;DHT22;64198;48.556;-2.934;2022-12-04T20:33:09;15.10;64.90
75613;DHT22;64198;48.556;-2.934;2022-12-04T20:35:35;15.20;64.60
75613;DHT22;64198;48.556;-2.934;2022-12-04T20:38:02;15.20;64.40
75613;DHT22;64198;48.556;-2.934;2022-12-04T20:40:28;15.20;64.40
75613;DHT22;64198;48.556;-2.934;2022-12-04T20:42:54;15.20;64.50
75613;DHT22;64198;48.556;-2.934;2022-12-04T20:45:20;15.10;64.60
75613;DHT22;64198;48.556;-2.934;2022-12-04T20:47:46;15.00;64.70
75613;DHT22;64198;48.556;-2.934;2022-12-04T20:50:11;15.00;64.70
75613;DHT22;64198;48.556;-2.934;2022-12-04T20:52:37;15.00;64.60
75613;DHT22;64198;48.556;-2.934;2022-12-04T20:55:04;15.00;64.40
75613;DHT22;64198;48.556;-2.934;2022-12-04T20:57:31;15.00;64.50
75613;DHT22;64198;48.556;-2.934;2022-12-04T20:59:58;15.00;64.40
75613;DHT22;64198;48.556;-2.934;2022-12-04T21:02:24;15.00;64.20
75613;DHT22;64198;48.556;-2.934;2022-12-04T21:04:50;15.00;64.10
75613;DHT22;64198;48.556;-2.934;2022-12-04T21:07:15;15.10;64.00
75613;DHT22;64198;48.556;-2.934;2022-12-04T21:09:41;15.00;64.10
75613;DHT22;64198;48.556;-2.934;2022-12-04T21:12:09;15.00;64.10
75613;DHT22;64198;48.556;-2.934;2022-12-04T21:14:53;15.00;64.20
75613;DHT22;64198;48.556;-2.934;2022-12-04T21:17:37;15.00;64.10
75613;DHT22;64198;48.556;-2.934;2022-12-04T21:20:04;15.00;64.00
75613;DHT22;64198;48.556;-2.934;2022-12-04T21:22:30;15.00;63.80
75613;DHT22;64198;48.556;-2.934;2022-12-04T21:24:56;15.10;63.70
75613;DHT22;64198;48.556;-2.934;2022-12-04T21:27:21;15.10;63.70
75613;DHT22;64198;48.556;-2.934;2022-12-04T21:29:47;15.20;63.70
75613;DHT22;64198;48.556;-2.934;2022-12-04T21:32:13;15.10;63.80
75613;DHT22;64198;48.556;-2.934;2022-12-04T21:34:39;15.10;63.90
75613;DHT22;64198;48.556;-2.934;2022-12-04T21:37:05;15.00;64.00
75613;DHT22;64198;48.556;-2.934;2022-12-04T21:39:31;15.00;63.90
75613;DHT22;64198;48.556;-2.934;2022-12-04T21:41:57;15.00;63.90
75613;DHT22;64198;48.556;-2.934;2022-12-04T21:44:41;15.10;63.90
75613;DHT22;64198;48.556;-2.934;2022-12-04T21:47:07;15.10;63.80
75613;DHT22;64198;48.556;-2.934;2022-12-04T21:49:33;15.10;63.70
75613;DHT22;64198;48.556;-2.934;2022-12-04T21:51:59;15.20;63.70
75613;DHT22;64198;48.556;-2.934;2022-12-04T21:54:26;15.10;63.90
75613;DHT22;64198;48.556;-2.934;2022-12-04T21:56:51;15.10;63.80
75613;DHT22;64198;48.556;-2.934;2022-12-04T21:59:17;15.10;63.70
75613;DHT22;64198;48.556;-2.934;2022-12-04T22:01:43;15.10;63.90
75613;DHT22;64198;48.556;-2.934;2022-12-04T22:04:09;15.00;63.90
75613;DHT22;64198;48.556;-2.934;2022-12-04T22:06:35;15.00;63.90
75613;DHT22;64198;48.556;-2.934;2022-12-04T22:09:06;15.00;64.00
75613;DHT22;64198;48.556;-2.934;2022-12-04T22:11:32;15.00;64.00
75613;DHT22;64198;48.556;-2.934;2022-12-04T22:13:58;15.00;63.90
75613;DHT22;64198;48.556;-2.934;2022-12-04T22:16:24;15.00;63.80
75613;DHT22;64198;48.556;-2.934;2022-12-04T22:18:53;15.00;63.70
75613;DHT22;64198;48.556;-2.934;2022-12-04T22:21:20;15.00;63.60
75613;DHT22;64198;48.556;-2.934;2022-12-04T22:23:46;15.00;63.50
75613;DHT22;64198;48.556;-2.934;2022-12-04T22:26:17;15.00;63.50
75613;DHT22;64198;48.556;-2.934;2022-12-04T22:28:45;15.00;63.50
75613;DHT22;64198;48.556;-2.934;2022-12-04T22:31:14;15.00;63.60
75613;DHT22;64198;48.556;-2.934;2022-12-04T22:33:40;15.00;63.60
75613;DHT22;64198;48.556;-2.934;2022-12-04T22:36:11;15.00;63.50
75613;DHT22;64198;48.556;-2.934;2022-12-04T22:38:38;15.00;63.40
75613;DHT22;64198;48.556;-2.934;2022-12-04T22:41:11;15.00;63.40
75613;DHT22;64198;48.556;-2.934;2022-12-04T22:43:37;15.00;63.40
75613;DHT22;64198;48.556;-2.934;2022-12-04T22:46:03;15.00;63.40
75613;DHT22;64198;48.556;-2.934;2022-12-04T22:48:31;15.00;63.40
75613;DHT22;64198;48.556;-2.934;2022-12-04T22:51:06;15.00;63.50
75613;DHT22;64198;48.556;-2.934;2022-12-04T22:53:38;15.00;63.50
75613;DHT22;64198;48.556;-2.934;2022-12-04T22:56:19;15.00;63.60
75613;DHT22;64198;48.556;-2.934;2022-12-04T22:58:45;15.00;63.70
75613;DHT22;64198;48.556;-2.934;2022-12-04T23:01:15;15.00;63.70
